Time;durP1;ratioP1;P1;durP2;ratioP2;P2;SDS_P1;SDS_P2;PMS_P1;PMS_P2;Temp;Humidity;BMP_temperature;BMP_pressure;BME280_temperature;BME280_humidity;BME280_pressure;Samples;Min_cycle;Max_cycle;Signal;HPM_P1;HPM_P2
2022/11/10 00:01:52;;;;;;;14.82;11.85;;;;;;;22.22;46.08;95613.41;4985360;28;20186;-63
2022/11/10 00:04:17;;;;;;;15.38;11.93;;;;;;;22.03;46.11;95535.38;5003415;28;20708;-62
2022/11/10 00:06:45;;;;;;;15.32;12.20;;;;;;;22.03;46.13;95543.53;4984439;28;20139;-63
2022/11/10 00:09:10;;;;;;;15.48;12.60;;;;;;;22.08;46.43;95559.88;5005858;28;20057;-61
2022/11/10 00:11:35;;;;;;;14.82;12.02;;;;;;;22.06;46.68;95556.91;5003357;28;20038;-63
2022/11/10 00:17:00;;;;;;;14.52;11.85;;;;;;;22.20;46.34;95577.03;4983402;28;20114;-59
2022/11/10 00:19:32;;;;;;;14.10;11.85;;;;;;;22.20;46.63;95572.31;5009104;28;20029;-64
2022/11/10 00:21:58;;;;;;;14.23;11.80;;;;;;;22.03;46.31;95552.47;4991588;28;20042;-59
2022/11/10 00:24:24;;;;;;;14.05;11.90;;;;;;;22.20;46.48;95577.75;5009269;28;20044;-62
2022/11/10 00:26:50;;;;;;;16.67;12.93;;;;;;;21.21;46.23;95428.16;5009823;28;20469;-61
2022/11/10 00:29:15;;;;;;;15.13;12.48;;;;;;;22.19;46.63;95568.09;5008438;28;20037;-61
2022/11/10 00:31:40;;;;;;;13.80;12.00;;;;;;;20.97;46.36;95387.06;5004919;28;20029;-58
2022/11/10 00:34:07;;;;;;;15.95;12.07;;;;;;;22.17;46.51;95573.28;4992308;28;20025;-63
2022/11/10 00:36:33;;;;;;;14.32;12.02;;;;;;;21.31;46.18;95446.50;5008905;28;20446;-60
2022/11/10 00:38:59;;;;;;;14.88;12.10;;;;;;;21.08;46.27;95442.16;4991179;28;20057;-60
2022/11/10 00:41:24;;;;;;;13.73;11.88;;;;;;;22.18;46.50;95566.63;5008733;28;20095;-63
2022/11/10 00:43:50;;;;;;;15.25;12.80;;;;;;;22.16;46.57;95577.22;4991819;28;20021;-61
2022/11/10 00:46:15;;;;;;;15.45;12.50;;;;;;;22.14;46.15;95552.50;5008554;28;20063;-59
2022/11/10 00:48:41;;;;;;;15.18;12.65;;;;;;;22.14;46.36;95552.50;4991811;28;20049;-61
2022/11/10 00:51:06;;;;;;;14.77;12.05;;;;;;;22.14;46.54;95552.50;4990185;28;20041;-60
2022/11/10 00:53:32;;;;;;;16.15;12.57;;;;;;;22.11;46.44;95548.03;5009680;28;20896;-63
2022/11/10 00:55:57;;;;;;;13.68;11.38;;;;;;;22.12;46.27;95549.53;4990647;28;20417;-60
2022/11/10 00:58:23;;;;;;;15.18;12.07;;;;;;;21.90;46.53;95520.72;5009476;28;20124;-63
2022/11/10 01:00:48;;;;;;;14.27;12.73;;;;;;;22.10;46.46;95579.19;4990618;28;20052;-60
2022/11/10 01:03:14;;;;;;;15.43;12.18;;;;;;;21.97;46.32;95542.75;5009749;28;20119;-62
2022/11/10 01:05:40;;;;;;;17.33;12.43;;;;;;;22.08;46.70;95554.44;4992121;28;20129;-59
2022/11/10 01:08:05;;;;;;;14.40;12.07;;;;;;;22.08;46.70;95549.00;4992938;28;20049;-62
2022/11/10 01:10:31;;;;;;;15.57;12.35;;;;;;;22.08;46.50;95548.28;4988637;28;20307;-63
2022/11/10 01:12:56;;;;;;;15.82;12.65;;;;;;;22.05;46.64;95541.09;5008784;28;20041;-61
2022/11/10 01:15:22;;;;;;;14.63;12.32;;;;;;;21.98;46.46;95534.13;5008496;28;20406;-63
2022/11/10 01:17:47;;;;;;;14.25;11.90;;;;;;;22.07;46.65;95569.28;5003570;28;20067;-60
2022/11/10 01:20:13;;;;;;;15.57;12.70;;;;;;;20.82;46.56;95361.28;4997125;28;20076;-63
2022/11/10 01:22:39;;;;;;;15.05;12.27;;;;;;;22.03;46.69;95541.56;4988846;28;20899;-61
2022/11/10 01:25:05;;;;;;;15.40;12.20;;;;;;;21.94;46.45;95528.19;4988168;28;20060;-62
2022/11/10 01:27:31;;;;;;;13.98;12.02;;;;;;;21.75;46.41;95492.97;5006337;28;20068;-63
2022/11/10 01:29:56;;;;;;;15.68;12.68;;;;;;;22.05;46.56;95536.38;4970921;28;20510;-65
2022/11/10 01:32:22;;;;;;;14.55;11.77;;;;;;;22.02;46.53;95540.06;5006483;28;20404;-60
2022/11/10 01:34:47;;;;;;;14.13;12.23;;;;;;;21.99;46.45;95541.06;4987122;28;20053;-61
2022/11/10 01:37:12;;;;;;;14.93;12.60;;;;;;;22.02;46.59;95537.38;5006202;28;20022;-62
2022/11/10 01:39:38;;;;;;;13.52;12.00;;;;;;;22.00;46.60;95542.56;5006403;28;20100;-65
2022/11/10 01:42:03;;;;;;;14.73;12.18;;;;;;;21.99;46.87;95568.25;5005433;28;20049;-62
2022/11/10 01:44:29;;;;;;;15.48;12.48;;;;;;;21.98;46.67;95539.56;5005722;28;20045;-64
2022/11/10 01:46:54;;;;;;;13.07;11.40;;;;;;;21.94;46.67;95555.38;4999800;28;20041;-60
2022/11/10 01:49:22;;;;;;;13.90;11.65;;;;;;;21.03;46.68;95396.72;5006010;28;20040;-60
2022/11/10 01:51:52;;;;;;;15.25;12.43;;;;;;;21.98;46.56;95545.00;4971954;28;20157;-63
2022/11/10 01:54:29;;;;;;;14.27;12.30;;;;;;;21.23;46.63;95437.31;4988680;28;20193;-61
2022/11/10 01:56:57;;;;;;;14.52;12.27;;;;;;;21.79;46.74;95515.25;4988288;28;20060;-63
2022/11/10 01:59:27;;;;;;;13.27;11.73;;;;;;;21.92;46.64;95529.16;4970897;28;20057;-62
2022/11/10 02:01:53;;;;;;;;;;;;;;;21.94;46.53;95536.34;4972605;28;20030;-62
2022/11/10 02:04:19;;;;;;;13.15;11.52;;;;;;;21.93;46.64;95534.84;5005901;28;19936;-62
2022/11/10 02:06:44;;;;;;;14.23;12.27;;;;;;;21.80;46.44;95527.59;4970949;28;20041;-63
2022/11/10 02:09:10;;;;;;;14.05;11.73;;;;;;;21.92;46.45;95534.59;4987106;28;20511;-64
2022/11/10 02:11:36;;;;;;;13.23;11.60;;;;;;;21.92;46.63;95540.03;5004945;28;20060;-62
2022/11/10 02:14:02;;;;;;;14.68;12.23;;;;;;;21.91;46.78;95539.28;5004749;28;20052;-62
2022/11/10 02:16:27;;;;;;;13.93;11.52;;;;;;;21.78;46.64;95519.19;4988107;28;20423;-63
2022/11/10 02:18:53;;;;;;;15.95;11.98;;;;;;;21.91;46.88;95549.41;5005570;28;20452;-61
2022/11/10 02:21:19;;;;;;;14.80;12.35;;;;;;;21.87;46.70;95540.72;5004818;28;20556;-60
2022/11/10 02:23:46;;;;;;;15.52;12.15;;;;;;;21.85;46.86;95545.91;5004644;28;20092;-62
2022/11/10 02:26:12;;;;;;;13.45;12.05;;;;;;;21.89;46.74;95551.88;5005233;28;20533;-63
2022/11/10 02:28:37;;;;;;;14.77;12.32;;;;;;;21.80;46.61;95539.22;5005315;28;20025;-63
2022/11/10 02:31:03;;;;;;;14.50;12.00;;;;;;;21.89;46.87;95573.63;5001427;28;21022;-60
2022/11/10 02:33:29;;;;;;;14.02;11.93;;;;;;;21.88;46.74;95555.81;4973345;28;20494;-63
2022/11/10 02:35:54;;;;;;;14.65;11.68;;;;;;;21.53;46.83;95520.03;4970513;28;20041;-60
2022/11/10 02:38:19;;;;;;;14.85;12.13;;;;;;;21.80;46.78;95543.91;4986041;28;20042;-60
2022/11/10 02:40:45;;;;;;;14.48;11.93;;;;;;;21.81;46.66;95550.81;4987417;28;20044;-62
2022/11/10 02:43:13;;;;;;;13.65;11.70;;;;;;;21.84;46.65;95556.06;5004757;28;20053;-59
2022/11/10 02:45:42;;;;;;;14.93;12.40;;;;;;;21.87;46.72;95559.75;4960354;28;20048;-63
2022/11/10 02:48:08;;;;;;;13.93;11.98;;;;;;;21.64;46.61;95537.16;4986059;28;20502;-61
2022/11/10 02:50:34;;;;;;;13.82;11.75;;;;;;;21.83;46.88;95557.28;4987069;28;20037;-62
2022/11/10 02:52:59;;;;;;;13.13;11.30;;;;;;;21.84;46.66;95560.72;5005170;28;20041;-63
2022/11/10 02:55:25;;;;;;;13.65;12.13;;;;;;;21.86;46.74;95574.59;5004673;28;20120;-61
2022/11/10 02:57:50;;;;;;;14.00;11.95;;;;;;;21.86;46.70;95563.72;4986010;28;20045;-62
2022/11/10 03:00:16;;;;;;;13.73;12.05;;;;;;;21.79;46.67;95564.16;4985865;28;20670;-61
2022/11/10 03:02:42;;;;;;;14.25;11.70;;;;;;;21.83;46.55;95564.69;5004587;28;20115;-62
2022/11/10 03:05:07;;;;;;;12.93;11.23;;;;;;;21.76;46.83;95560.44;5004385;28;20041;-64
2022/11/10 03:07:33;;;;;;;14.38;11.48;;;;;;;21.81;46.70;95567.13;4986888;28;20028;-62
2022/11/10 03:09:58;;;;;;;14.05;12.07;;;;;;;21.79;46.71;95564.91;5004471;28;20484;-62
2022/11/10 03:12:23;;;;;;;14.25;11.52;;;;;;;21.78;46.47;95562.66;5004217;28;20415;-62
2022/11/10 03:14:49;;;;;;;14.82;12.15;;;;;;;21.73;46.66;95555.97;5004260;28;20096;-64
2022/11/10 03:17:14;;;;;;;13.98;12.25;;;;;;;21.64;46.70;95542.59;5003794;28;20049;-62
2022/11/10 03:19:40;;;;;;;13.07;11.35;;;;;;;21.56;46.76;95535.38;5003991;28;20056;-63
2022/11/10 03:22:05;;;;;;;13.68;11.13;;;;;;;21.74;46.90;95575.75;4995797;28;20379;-60
2022/11/10 03:24:31;;;;;;;14.32;12.05;;;;;;;21.76;46.68;95565.13;4985704;28;20066;-62
2022/11/10 03:26:56;;;;;;;14.55;11.93;;;;;;;21.75;46.95;95563.63;5003512;28;20052;-64
2022/11/10 03:29:22;;;;;;;13.85;11.90;;;;;;;21.76;46.72;95570.56;4982525;28;20045;-64
2022/11/10 03:31:47;;;;;;;13.32;11.13;;;;;;;21.74;46.94;95567.59;5005121;28;20018;-62
2022/11/10 03:34:13;;;;;;;14.18;11.98;;;;;;;21.75;46.60;95569.84;4987961;28;20496;-62
2022/11/10 03:36:38;;;;;;;14.80;11.55;;;;;;;21.62;46.77;95566.03;5004260;28;20144;-62
2022/11/10 03:39:04;;;;;;;13.95;11.65;;;;;;;21.23;46.64;95490.91;5004409;28;20418;-58
2022/11/10 03:41:29;;;;;;;13.38;11.00;;;;;;;21.74;46.76;95568.34;5004947;28;20045;-63
2022/11/10 03:43:54;;;;;;;12.95;11.07;;;;;;;21.74;46.61;95570.31;5000534;28;20033;-59
2022/11/10 03:46:20;;;;;;;14.77;11.63;;;;;;;21.75;46.76;95574.50;5000952;28;20220;-63
2022/11/10 03:48:45;;;;;;;13.52;11.60;;;;;;;21.73;46.76;95576.97;4987833;28;20041;-58
2022/11/10 03:51:11;;;;;;;13.75;11.95;;;;;;;21.71;46.83;95574.00;4987796;28;20037;-60
2022/11/10 03:53:36;;;;;;;13.57;11.50;;;;;;;21.65;46.62;95565.06;4982984;28;20069;-63
2022/11/10 03:56:03;;;;;;;13.77;11.35;;;;;;;21.72;46.76;95576.25;5004196;28;20519;-62
2022/11/10 03:58:28;;;;;;;13.52;11.30;;;;;;;21.73;46.80;95582.41;5005110;28;20485;-63
2022/11/10 04:00:54;;;;;;;12.50;10.85;;;;;;;21.73;46.98;95582.41;4983549;28;20045;-62
2022/11/10 04:03:20;;;;;;;12.55;10.82;;;;;;;21.40;46.75;95533.25;5003418;28;20407;-62
2022/11/10 04:15:40;;;;;;;14.20;11.63;;;;;;;21.71;46.64;95587.59;5002492;28;20088;-62
2022/11/10 04:16:43;;;;;;;13.77;10.93;;;;;;;21.82;46.85;95590.38;5003474;28;20068;-63
2022/11/10 04:19:09;;;;;;;13.73;11.10;;;;;;;21.88;46.30;95580.28;4969766;28;20033;-60
2022/11/10 04:21:34;;;;;;;12.50;10.48;;;;;;;21.86;46.10;95558.28;5000089;28;20872;-62
2022/11/10 04:24:00;;;;;;;13.18;10.90;;;;;;;22.22;45.60;95585.47;5003569;28;20053;-61
2022/11/10 04:26:28;;;;;;;12.68;10.15;;;;;;;22.07;45.75;95563.84;4991518;28;20041;-62
2022/11/10 04:28:55;;;;;;;14.23;10.43;;;;;;;22.30;45.43;95598.13;5000985;28;20536;-63
2022/11/10 04:31:21;;;;;;;12.88;10.35;;;;;;;20.37;45.18;95302.47;4997695;28;20476;-60
2022/11/10 04:33:47;;;;;;;12.52;10.93;;;;;;;22.31;45.52;95599.59;4997164;28;20297;-60
2022/11/10 04:36:15;;;;;;;13.00;10.20;;;;;;;22.31;45.58;95594.16;4999348;28;20852;-60
2022/11/10 04:38:41;;;;;;;13.38;10.57;;;;;;;22.30;45.37;95602.78;4996248;28;20072;-60
2022/11/10 04:41:06;;;;;;;11.82;10.20;;;;;;;22.34;45.49;95590.44;5001900;28;20049;-64
2022/11/10 04:43:32;;;;;;;13.07;10.60;;;;;;;22.33;45.69;95618.91;4999361;28;20156;-62
2022/11/10 04:45:58;;;;;;;13.30;10.88;;;;;;;21.96;45.38;95535.84;4999212;28;20465;-61
2022/11/10 04:48:24;;;;;;;13.18;10.93;;;;;;;22.38;45.38;95599.13;5001315;28;20160;-60
2022/11/10 04:50:49;;;;;;;11.75;9.80;;;;;;;22.43;45.39;95595.69;5001763;28;20053;-60
2022/11/10 04:53:15;;;;;;;11.73;10.10;;;;;;;22.45;45.16;95598.66;4998125;28;20530;-61
2022/11/10 04:55:43;;;;;;;13.18;10.13;;;;;;;22.26;44.85;95554.06;5004292;28;20075;-63
2022/11/10 04:58:09;;;;;;;12.10;10.50;;;;;;;21.60;45.19;95451.66;5005970;28;20779;-61
2022/11/10 05:00:35;;;;;;;12.65;10.25;;;;;;;22.55;45.08;95602.66;4999522;28;20408;-62
2022/11/10 05:03:01;;;;;;;11.68;10.07;;;;;;;20.73;45.09;95329.66;4992848;28;20049;-64
2022/11/10 05:05:27;;;;;;;12.82;10.18;;;;;;;22.60;45.37;95599.22;4987916;28;20068;-67
2022/11/10 05:07:52;;;;;;;11.20;9.70;;;;;;;22.53;45.09;95594.25;4970411;28;20030;-63
2022/11/10 05:10:18;;;;;;;12.13;10.32;;;;;;;22.64;45.03;95607.91;4987937;28;20030;-67
2022/11/10 05:12:43;;;;;;;11.35;9.98;;;;;;;21.63;45.26;95447.97;4989296;28;20029;-65
2022/11/10 05:15:09;;;;;;;10.68;9.38;;;;;;;22.62;45.03;95613.09;4986539;28;21279;-63
2022/11/10 05:17:35;;;;;;;12.63;9.90;;;;;;;22.62;44.91;95602.19;4987741;28;20038;-62
2022/11/10 05:20:00;;;;;;;12.35;9.82;;;;;;;22.78;44.77;95612.38;4969922;28;20438;-65
2022/11/10 05:22:25;;;;;;;10.88;9.23;;;;;;;22.86;44.82;95616.16;4984907;28;20532;-63
2022/11/10 05:24:51;;;;;;;10.80;9.30;;;;;;;22.88;44.83;95619.84;5004250;28;20045;-66
2022/11/10 05:27:16;;;;;;;10.50;9.40;;;;;;;22.92;44.30;95621.09;4990900;28;20048;-67
2022/11/10 05:29:42;;;;;;;11.05;9.27;;;;;;;23.16;44.41;95618.72;4988844;28;20042;-68
2022/11/10 05:32:07;;;;;;;12.00;10.13;;;;;;;23.11;44.24;95616.72;5004367;28;20843;-65
2022/11/10 05:34:33;;;;;;;12.25;9.35;;;;;;;23.18;44.07;95616.22;4985752;28;20030;-64
2022/11/10 05:36:58;;;;;;;11.35;9.43;;;;;;;23.23;43.92;95618.22;5003158;28;20044;-60
2022/11/10 05:39:24;;;;;;;11.43;9.40;;;;;;;23.14;43.89;95621.19;5020497;28;20041;-62
2022/11/10 05:41:50;;;;;;;10.90;9.77;;;;;;;23.23;43.82;95596.44;4975606;28;20464;-63
2022/11/10 05:44:15;;;;;;;11.70;9.85;;;;;;;23.37;43.61;95617.25;4994658;28;20618;-64
2022/11/10 05:46:41;;;;;;;10.57;9.15;;;;;;;23.42;43.48;95614.53;4986134;28;20082;-62
2022/11/10 05:49:07;;;;;;;11.13;9.52;;;;;;;23.35;43.60;95627.16;5005651;28;20025;-65
2022/11/10 05:51:32;;;;;;;11.85;9.43;;;;;;;23.39;43.66;95626.44;5005010;28;20033;-65
2022/11/10 05:53:58;;;;;;;11.90;8.95;;;;;;;23.69;42.93;95626.69;4984691;28;20517;-65
2022/11/10 05:56:23;;;;;;;10.30;9.10;;;;;;;23.88;42.25;95637.38;5002673;28;20357;-64
2022/11/10 05:58:48;;;;;;;10.63;9.25;;;;;;;23.96;42.72;95627.44;4986425;28;20092;-63
2022/11/10 06:01:14;;;;;;;11.30;9.30;;;;;;;23.65;42.46;95605.16;5005915;28;20021;-63
2022/11/10 06:03:39;;;;;;;10.32;8.73;;;;;;;23.83;42.29;95642.09;4999666;28;20049;-67
2022/11/10 06:06:05;;;;;;;11.02;9.43;;;;;;;23.84;42.19;95643.56;4986521;28;20782;-62
2022/11/10 06:08:30;;;;;;;10.45;9.07;;;;;;;23.93;42.40;95644.78;4996323;28;20041;-62
2022/11/10 06:10:56;;;;;;;10.25;9.23;;;;;;;23.94;42.20;95648.25;5001831;28;20902;-66
2022/11/10 06:13:21;;;;;;;11.48;9.35;;;;;;;23.86;42.66;95652.00;4985522;28;20045;-68
2022/11/10 06:15:47;;;;;;;10.40;8.77;;;;;;;23.05;42.47;95526.06;4987567;28;20041;-64
2022/11/10 06:18:12;;;;;;;10.45;9.30;;;;;;;24.29;41.60;95654.66;5008619;28;20358;-61
2022/11/10 06:20:38;;;;;;;10.02;9.02;;;;;;;24.58;41.01;95651.38;4984772;28;20537;-63
2022/11/10 06:23:04;;;;;;;10.93;9.30;;;;;;;24.24;41.82;95682.69;4997495;28;20898;-62
2022/11/10 06:25:30;;;;;;;11.15;8.70;;;;;;;23.80;41.79;95604.91;4995809;28;20053;-65
2022/11/10 06:27:56;;;;;;;10.80;8.75;;;;;;;24.40;41.47;95668.31;4983537;28;20088;-62
2022/11/10 06:30:22;;;;;;;10.38;8.60;;;;;;;24.43;41.26;95678.25;4993036;28;20037;-59
2022/11/10 06:32:48;;;;;;;10.68;8.77;;;;;;;24.36;41.31;95673.28;4996360;28;20025;-61
2022/11/10 06:35:13;;;;;;;9.57;8.52;;;;;;;24.38;41.33;95676.28;5007349;28;20041;-64
2022/11/10 06:37:39;;;;;;;9.50;8.15;;;;;;;24.54;40.93;95678.19;5007616;28;20046;-66
2022/11/10 06:40:08;;;;;;;9.32;8.07;;;;;;;23.41;41.31;95587.78;5007637;28;20143;-66
2022/11/10 06:42:34;;;;;;;10.55;8.77;;;;;;;24.49;41.05;95709.75;4988047;28;21147;-64
2022/11/10 06:44:59;;;;;;;14.73;9.15;;;;;;;24.73;40.53;95701.00;4988100;28;20030;-62
2022/11/10 06:47:25;;;;;;;12.70;9.38;;;;;;;24.58;40.84;95697.81;5006251;28;20132;-63
2022/11/10 06:49:50;;;;;;;9.82;8.15;;;;;;;24.56;40.98;95697.56;5009300;28;21043;-61
2022/11/10 06:52:16;;;;;;;10.57;7.93;;;;;;;24.59;41.39;95691.13;5004368;28;20103;-62
2022/11/10 06:54:41;;;;;;;11.38;9.13;;;;;;;24.48;41.10;95677.47;5006798;28;20049;-62
2022/11/10 06:57:07;;;;;;;9.77;8.15;;;;;;;24.16;40.93;95632.59;5008251;28;20030;-64
2022/11/10 06:59:32;;;;;;;10.63;8.52;;;;;;;24.66;40.93;95690.59;5003700;28;20050;-64
2022/11/10 07:01:58;;;;;;;10.13;8.55;;;;;;;24.78;40.76;95697.50;5002594;28;20041;-61
2022/11/10 07:04:24;;;;;;;11.07;9.07;;;;;;;24.79;40.93;95699.00;5005535;28;20095;-61
2022/11/10 07:06:50;;;;;;;12.32;9.25;;;;;;;24.78;41.01;95697.50;4971993;28;20452;-67
2022/11/10 07:09:16;;;;;;;11.02;8.70;;;;;;;24.94;40.43;95678.31;4981215;28;20037;-61
2022/11/10 07:11:41;;;;;;;12.90;8.93;;;;;;;24.93;40.65;95699.44;5005501;28;20041;-62
2022/11/10 07:14:07;;;;;;;10.55;8.85;;;;;;;24.83;40.75;95690.03;4988213;28;20393;-66
2022/11/10 07:16:32;;;;;;;11.07;8.90;;;;;;;24.83;41.05;95708.41;5006460;28;20036;-64
2022/11/10 07:18:58;;;;;;;9.43;7.93;;;;;;;24.79;40.79;95704.47;5005887;28;20041;-62
2022/11/10 07:21:23;;;;;;;10.48;8.82;;;;;;;24.38;40.92;95632.59;5005557;28;20041;-63
2022/11/10 07:23:49;;;;;;;10.38;8.77;;;;;;;24.46;40.38;95639.00;4985475;28;20423;-62
2022/11/10 07:26:14;;;;;;;11.35;8.88;;;;;;;24.68;40.48;95672.47;5001376;28;20784;-64
2022/11/10 07:28:41;;;;;;;9.48;8.25;;;;;;;24.96;40.54;95692.19;5004751;28;21050;-61
2022/11/10 07:31:07;;;;;;;9.70;8.43;;;;;;;24.90;40.67;95683.28;4991873;28;20103;-63
2022/11/10 07:33:33;;;;;;;9.57;8.50;;;;;;;24.94;40.59;95709.09;5000788;28;20037;-61
2022/11/10 07:35:59;;;;;;;10.73;8.68;;;;;;;24.97;40.44;95710.81;5002391;28;20025;-65
2022/11/10 07:38:25;;;;;;;10.30;8.80;;;;;;;25.10;40.17;95718.53;4996967;28;20041;-62
2022/11/10 07:40:51;;;;;;;9.77;8.30;;;;;;;25.21;40.15;95719.22;5006079;28;20956;-64
2022/11/10 07:43:20;;;;;;;10.30;8.60;;;;;;;25.05;40.25;95728.25;4987327;28;20871;-60
2022/11/10 07:45:46;;;;;;;10.07;8.85;;;;;;;25.00;40.04;95687.25;4986183;28;20049;-62
2022/11/10 07:48:11;;;;;;;10.95;8.93;;;;;;;25.01;40.48;95705.88;5002207;28;20033;-63
2022/11/10 07:50:37;;;;;;;10.02;8.57;;;;;;;25.17;40.28;95704.31;5003545;28;20426;-60
2022/11/10 07:53:09;;;;;;;9.25;8.13;;;;;;;24.24;40.07;95595.34;5006959;28;20037;-62
2022/11/10 07:55:36;;;;;;;11.65;9.07;;;;;;;24.97;41.38;95699.91;5010915;28;20162;-63
2022/11/10 07:58:01;;;;;;;11.55;8.57;;;;;;;24.88;40.67;95704.91;5010391;28;20049;-63
2022/11/10 08:00:27;;;;;;;9.52;8.25;;;;;;;24.80;40.60;95695.00;5006122;28;20095;-66
2022/11/10 08:02:52;;;;;;;10.25;8.95;;;;;;;24.40;40.50;95657.41;5009243;28;21017;-65
2022/11/10 08:05:18;;;;;;;9.88;8.85;;;;;;;23.96;40.08;95547.56;5006138;28;20358;-64
2022/11/10 08:07:43;;;;;;;11.55;9.18;;;;;;;24.92;40.61;95708.88;5007813;28;20033;-65
2022/11/10 08:10:09;;;;;;;9.85;8.73;;;;;;;24.86;40.56;95683.56;4996714;28;20729;-63
2022/11/10 08:12:34;;;;;;;10.43;8.63;;;;;;;24.90;40.72;95700.44;4990634;28;20026;-66
2022/11/10 08:15:00;;;;;;;10.60;8.90;;;;;;;24.69;40.92;95700.50;4994137;28;20899;-65
2022/11/10 08:17:25;;;;;;;10.65;9.23;;;;;;;24.65;41.28;95700.00;4997855;28;20042;-65
2022/11/10 08:19:51;;;;;;;10.52;8.55;;;;;;;24.45;41.34;95703.03;5014042;28;20044;-61
2022/11/10 08:22:16;;;;;;;10.80;8.90;;;;;;;24.49;41.08;95687.16;5011059;28;20061;-66
2022/11/10 08:24:41;;;;;;;11.63;9.02;;;;;;;24.61;41.30;95715.94;4990315;28;20045;-62
2022/11/10 08:27:07;;;;;;;10.30;8.88;;;;;;;24.52;41.62;95711.47;5010774;28;20077;-63
2022/11/10 08:29:32;;;;;;;11.43;8.73;;;;;;;24.46;41.42;95715.47;4996745;28;20060;-62
2022/11/10 08:31:58;;;;;;;11.20;8.80;;;;;;;24.51;41.41;95733.81;5014248;28;20041;-63
2022/11/10 08:34:23;;;;;;;10.95;9.20;;;;;;;24.47;41.47;95722.41;5011309;28;20564;-64
2022/11/10 08:36:52;;;;;;;10.25;9.02;;;;;;;24.35;41.13;95704.56;5012217;28;20041;-61
2022/11/10 08:39:18;;;;;;;9.63;8.43;;;;;;;24.32;41.53;95715.69;4991122;28;20029;-64
2022/11/10 08:41:43;;;;;;;10.45;8.60;;;;;;;24.43;41.27;95721.91;4985975;28;20498;-64
2022/11/10 08:44:09;;;;;;;10.52;8.90;;;;;;;24.34;41.78;95709.25;5006232;28;20045;-63
2022/11/10 08:46:34;;;;;;;11.10;8.55;;;;;;;24.19;41.53;95699.09;4987342;28;20038;-61
2022/11/10 08:49:00;;;;;;;10.43;8.88;;;;;;;23.40;41.35;95580.81;4989365;28;20046;-64
2022/11/10 08:51:25;;;;;;;10.93;9.30;;;;;;;24.35;41.69;95720.94;5000851;28;20096;-62
2022/11/10 08:53:51;;;;;;;9.85;8.50;;;;;;;24.28;41.81;95720.69;5004770;28;20040;-62
2022/11/10 08:56:16;;;;;;;10.27;8.77;;;;;;;24.23;41.65;95713.22;5004058;28;20100;-62
2022/11/10 08:58:41;;;;;;;11.88;9.23;;;;;;;24.23;41.58;95730.34;5007183;28;20098;-65
2022/11/10 09:01:08;;;;;;;12.35;9.68;;;;;;;24.30;41.89;95731.84;5003188;28;20049;-65
2022/11/10 09:03:33;;;;;;;11.13;9.13;;;;;;;24.26;41.89;95737.56;4996045;28;20047;-63
2022/11/10 09:05:59;;;;;;;10.48;8.68;;;;;;;24.25;41.90;95746.97;4985656;28;20179;-65
2022/11/10 09:08:24;;;;;;;11.82;9.20;;;;;;;24.05;41.97;95698.13;4987164;28;20068;-61
2022/11/10 09:10:50;;;;;;;12.05;9.18;;;;;;;24.22;41.52;95723.41;5001743;28;20039;-65
2022/11/10 09:13:15;;;;;;;10.98;9.15;;;;;;;24.26;41.49;95732.09;4973529;28;20056;-62
2022/11/10 09:15:41;;;;;;;10.95;9.15;;;;;;;24.25;41.80;95721.69;4986584;28;20115;-63
2022/11/10 09:18:07;;;;;;;11.52;9.05;;;;;;;23.53;41.76;95624.69;4988272;28;20824;-66
2022/11/10 09:20:34;;;;;;;12.27;9.32;;;;;;;24.03;41.84;95695.13;5001312;28;20049;-62
2022/11/10 09:23:14;;;;;;;10.85;9.10;;;;;;;24.31;41.57;95722.41;5004463;28;20127;-64
2022/11/10 09:25:39;;;;;;;;;;;;;;;24.42;41.29;95720.44;4981490;28;20069;-61
2022/11/10 09:28:05;;;;;;;11.65;8.70;;;;;;;24.28;41.74;95721.41;5008493;28;20028;-66
2022/11/10 09:30:30;;;;;;;13.10;9.88;;;;;;;24.22;41.70;95712.50;5004696;28;20040;-65
2022/11/10 09:32:57;;;;;;;13.25;10.38;;;;;;;22.84;41.36;95521.31;5010079;28;20144;-60
2022/11/10 09:35:23;;;;;;;13.93;10.30;;;;;;;24.01;41.86;95697.59;4974680;28;20049;-62
2022/11/10 09:37:48;;;;;;;12.32;10.00;;;;;;;24.04;41.77;95706.78;5010186;28;20038;-62
2022/11/10 09:40:22;;;;;;;12.02;9.98;;;;;;;23.99;41.77;95711.00;5013849;28;20108;-62
2022/11/10 09:42:47;;;;;;;12.85;10.50;;;;;;;22.92;41.89;95555.72;5004691;28;20705;-61
2022/11/10 09:45:19;;;;;;;11.88;9.88;;;;;;;24.03;42.34;95705.31;4985277;28;20037;-60
2022/11/10 09:48:36;;;;;;;12.07;10.50;;;;;;;23.99;42.42;95711.00;5013956;28;20042;-62
2022/11/10 09:51:06;;;;;;;12.25;9.88;;;;;;;23.94;42.05;95709.00;4998230;28;20100;-62
2022/11/10 09:53:46;;;;;;;11.90;9.75;;;;;;;23.91;42.45;95704.53;5015526;28;20049;-64
2022/11/10 09:56:15;;;;;;;12.88;10.05;;;;;;;23.29;42.47;95627.16;4977421;28;20042;-66
2022/11/10 09:58:42;;;;;;;13.20;10.27;;;;;;;23.77;42.30;95725.88;4971758;28;20049;-63
2022/11/10 10:01:10;;;;;;;14.25;10.77;;;;;;;23.09;42.31;95580.31;4996384;28;20288;-61
2022/11/10 10:03:35;;;;;;;14.35;10.57;;;;;;;23.93;42.86;95702.09;5014329;28;20231;-60
2022/11/10 10:06:11;;;;;;;14.60;11.38;;;;;;;23.96;42.42;95706.56;4997779;28;20399;-65
2022/11/10 10:08:59;;;;;;;14.70;10.90;;;;;;;23.94;43.13;95703.56;5008217;28;20046;-68
2022/11/10 10:11:27;;;;;;;12.57;10.85;;;;;;;24.00;43.33;95696.13;5011457;28;21015;-68
2022/11/10 10:13:59;;;;;;;12.80;10.23;;;;;;;23.74;42.81;95661.44;5012370;28;21128;-61
2022/11/10 10:16:36;;;;;;;13.73;10.85;;;;;;;24.03;42.97;95686.94;5010452;28;20041;-65
2022/11/10 10:19:21;;;;;;;13.65;11.27;;;;;;;23.73;42.49;95659.94;4994165;28;20124;-66
2022/11/10 10:21:46;;;;;;;14.38;11.60;;;;;;;23.98;42.93;95723.16;4972323;28;20041;-67
2022/11/10 10:24:13;;;;;;;16.58;11.93;;;;;;;23.17;42.44;95586.75;5011082;28;20033;-70
2022/11/10 10:26:41;;;;;;;13.85;11.20;;;;;;;23.35;42.42;95583.53;4994835;28;20051;-66
2022/11/10 10:29:13;;;;;;;13.40;11.93;;;;;;;24.13;42.63;95693.63;4993783;28;20191;-65
2022/11/10 10:31:42;;;;;;;16.25;12.13;;;;;;;24.15;42.18;95690.41;4994497;28;20041;-67
2022/11/10 10:34:12;;;;;;;14.27;11.93;;;;;;;24.16;42.32;95692.66;4992537;28;20052;-66
2022/11/10 10:36:38;;;;;;;16.90;12.02;;;;;;;24.20;41.95;95698.59;5010924;28;20461;-65
2022/11/10 10:39:06;;;;;;;17.88;12.93;;;;;;;23.24;41.96;95565.19;5009938;28;20045;-67
2022/11/10 10:41:33;;;;;;;14.65;12.50;;;;;;;24.19;41.93;95686.19;4992945;28;20045;-64
2022/11/10 10:44:07;;;;;;;17.00;12.93;;;;;;;24.53;41.44;95682.19;4979326;28;20231;-64
2022/11/10 10:46:36;;;;;;;15.77;12.43;;;;;;;24.63;41.43;95677.94;4980272;28;20572;-63
2022/11/10 10:49:11;;;;;;;16.45;12.48;;;;;;;24.69;41.18;95679.38;4961806;28;20042;-65
2022/11/10 10:51:37;;;;;;;16.23;12.93;;;;;;;24.18;40.83;95602.09;5011217;28;20057;-68
2022/11/10 10:54:02;;;;;;;15.50;12.85;;;;;;;24.71;40.86;95676.16;4999126;28;20052;-66
2022/11/10 10:56:31;;;;;;;14.40;12.65;;;;;;;24.62;40.78;95630.00;5012010;28;20136;-60
2022/11/10 10:59:01;;;;;;;16.33;12.35;;;;;;;24.86;40.56;95672.63;5009332;28;20129;-59
2022/11/10 11:01:33;;;;;;;17.55;12.68;;;;;;;24.84;40.53;95647.81;5012956;28;20480;-62
2022/11/10 11:04:00;;;;;;;16.70;12.82;;;;;;;24.97;40.83;95661.66;4978799;28;20045;-62
2022/11/10 11:06:30;;;;;;;16.30;12.73;;;;;;;25.03;40.33;95691.72;5009793;28;20530;-63
2022/11/10 11:08:59;;;;;;;;;;;;;;;25.10;40.05;95653.66;5001184;28;20345;-60
2022/11/10 11:11:30;;;;;;;16.25;13.05;;;;;;;24.74;40.46;95615.06;5013144;28;19917;-64
2022/11/10 11:14:20;;;;;;;15.63;12.88;;;;;;;25.16;39.95;95639.97;4979991;28;20049;-60
2022/11/10 11:16:48;;;;;;;17.35;13.95;;;;;;;25.10;40.34;95661.88;4978379;28;20045;-60
2022/11/10 11:19:14;;;;;;;17.25;12.85;;;;;;;25.26;39.87;95633.72;5012211;28;20154;-63
2022/11/10 11:22:09;;;;;;;18.80;13.15;;;;;;;25.30;39.97;95650.56;5010897;28;20200;-64
2022/11/10 11:24:52;;;;;;;15.68;13.10;;;;;;;25.36;39.90;95643.06;4975469;28;20058;-62
2022/11/10 11:27:27;;;;;;;16.67;13.27;;;;;;;25.32;39.59;95642.63;5011155;28;20028;-64
2022/11/10 11:30:20;;;;;;;16.38;13.75;;;;;;;25.25;39.40;95626.75;5012729;28;20049;-62
2022/11/10 11:33:03;;;;;;;16.50;13.63;;;;;;;25.47;39.32;95643.00;4992628;28;20041;-60